Terminal Aerodrome Forecast
Issued by NWS Central Illinois

Home | Current Version | Previous Version | Text Only | Print | Product List | Glossary On
Versions: 1 2 3 4 5 6 7 8 9 10 11 12 13 14 15 16 17 18
912
FTUS43 KILX 121127
TAFSPI
TAF
KSPI 121127Z 1212/1312 32015G26KT P6SM SCT200
     FM122300 30012KT P6SM SKC
     FM130100 28005KT P6SM SKC
     FM130400 25004KT P6SM SCT150
     FM130800 20005KT P6SM SCT150=

USA.gov is the U.S. government's official web portal to all federal, state and local government web resources and services.